createdAt,value
2019-04-28T00:01:30.981Z,12.13
2019-04-28T00:04:01.369Z,12.19
2019-04-28T00:06:32.710Z,12.23
2019-04-28T00:09:02.850Z,12.27
2019-04-28T00:11:32.653Z,12.36
2019-04-28T00:14:02.605Z,12.28
2019-04-28T00:16:32.479Z,12.18
2019-04-28T00:19:02.396Z,12.19
2019-04-28T00:21:43.661Z,12.26
2019-04-28T00:24:39.316Z,12.33
2019-04-28T00:27:11.736Z,12.02
2019-04-28T00:29:46.068Z,11.72
2019-04-28T00:32:13.570Z,11.30
2019-04-28T00:34:43.569Z,11.22
2019-04-28T00:37:31.997Z,11.12
2019-04-28T00:40:02.263Z,11.05
2019-04-28T00:42:32.068Z,11.11
2019-04-28T00:45:02.127Z,11.08
2019-04-28T00:47:31.912Z,10.96
2019-04-28T00:50:02.247Z,11.07
2019-04-28T00:52:32.156Z,10.95
2019-04-28T00:55:02.084Z,10.96
2019-04-28T00:57:31.823Z,10.84
2019-04-28T01:00:02.416Z,10.87
2019-04-28T01:02:41.115Z,10.69
2019-04-28T01:05:11.665Z,10.78
2019-04-28T01:07:41.665Z,10.79
2019-04-28T01:10:12.739Z,10.79
2019-04-28T01:12:42.453Z,10.92
2019-04-28T01:15:31.067Z,10.83
2019-04-28T01:18:22.730Z,10.84
2019-04-28T01:20:52.764Z,10.85
2019-04-28T01:23:22.679Z,10.79
2019-04-28T01:25:52.568Z,10.67
2019-04-28T01:28:23.719Z,10.61
2019-04-28T01:31:07.423Z,10.52
2019-04-28T01:34:01.970Z,10.38
2019-04-28T01:36:32.127Z,10.40
2019-04-28T01:39:01.938Z,10.36
2019-04-28T01:41:31.713Z,10.33
2019-04-28T01:44:01.429Z,10.35
2019-04-28T01:46:31.367Z,10.35
2019-04-28T01:49:01.392Z,10.34
2019-04-28T01:51:31.383Z,10.31
2019-04-28T01:54:01.266Z,10.31
2019-04-28T01:56:31.204Z,10.30
2019-04-28T01:59:01.039Z,10.31
2019-04-28T02:01:31.010Z,10.32
2019-04-28T02:04:00.981Z,10.32
2019-04-28T02:06:30.791Z,10.43
2019-04-28T02:09:01.028Z,10.45
2019-04-28T02:11:30.714Z,10.47
2019-04-28T02:14:00.645Z,10.50
2019-04-28T02:16:30.621Z,10.48
2019-04-28T02:19:00.379Z,10.54
2019-04-28T02:21:54.873Z,10.61
2019-04-28T02:24:35.149Z,10.63
2019-04-28T02:27:05.451Z,10.56
2019-04-28T02:29:35.884Z,10.53
2019-04-28T02:32:10.297Z,10.52
2019-04-28T02:34:41.031Z,10.43
2019-04-28T02:37:11.470Z,10.53
2019-04-28T02:39:41.458Z,10.55
2019-04-28T02:42:11.336Z,10.63
2019-04-28T02:44:41.196Z,10.62
2019-04-28T02:47:11.355Z,10.61
2019-04-28T02:49:50.207Z,10.62
2019-04-28T02:52:36.931Z,10.64
2019-04-28T02:55:07.072Z,10.61
2019-04-28T02:57:36.810Z,10.58
2019-04-28T03:00:10.091Z,10.51
2019-04-28T03:02:41.413Z,10.45
2019-04-28T03:05:11.662Z,10.48
2019-04-28T03:07:41.587Z,10.53
2019-04-28T03:10:11.455Z,10.57
2019-04-28T03:12:41.735Z,10.57
2019-04-28T03:15:12.100Z,10.61
2019-04-28T03:17:42.095Z,10.61
2019-04-28T03:20:12.110Z,10.64
2019-04-28T03:22:41.945Z,10.63
2019-04-28T03:25:20.421Z,10.64
2019-04-28T03:28:07.107Z,10.61
2019-04-28T03:30:54.949Z,10.59
2019-04-28T03:33:26.615Z,10.54
2019-04-28T03:35:56.745Z,10.48
2019-04-28T03:38:26.683Z,10.40
2019-04-28T03:40:56.483Z,10.37
2019-04-28T03:43:26.395Z,10.32
2019-04-28T03:46:03.614Z,10.39
2019-04-28T03:48:33.680Z,10.40
2019-04-28T03:51:03.743Z,10.50
2019-04-28T03:53:33.682Z,10.50
2019-04-28T03:56:03.548Z,10.47
2019-04-28T03:58:33.500Z,10.61
2019-04-28T04:01:04.647Z,10.63
2019-04-28T04:03:34.448Z,10.64
2019-04-28T04:06:04.160Z,10.65
2019-04-28T04:08:34.037Z,10.67
2019-04-28T04:11:12.423Z,10.67
2019-04-28T04:13:46.824Z,10.72
2019-04-28T04:16:26.108Z,10.74
2019-04-28T04:18:57.296Z,10.78
2019-04-28T04:21:30.824Z,10.85
2019-04-28T04:24:01.062Z,10.98
2019-04-28T04:26:33.552Z,11.08
2019-04-28T04:29:02.502Z,11.11
2019-04-28T04:31:32.318Z,11.15
2019-04-28T04:34:03.405Z,11.25
2019-04-28T04:36:33.370Z,11.42
2019-04-28T04:39:03.349Z,11.46
2019-04-28T04:41:33.120Z,11.64
2019-04-28T04:44:02.918Z,11.70
2019-04-28T04:46:34.002Z,11.82
2019-04-28T04:49:04.120Z,11.94
2019-04-28T04:51:33.883Z,12.10
2019-04-28T04:54:05.040Z,12.42
2019-04-28T04:56:34.835Z,12.46
2019-04-28T04:59:04.562Z,12.58
2019-04-28T05:01:51.996Z,12.85
2019-04-28T05:04:29.711Z,12.92
2019-04-28T05:06:59.865Z,12.93
2019-04-28T05:09:31.202Z,12.94
2019-04-28T05:12:01.188Z,13.33
2019-04-28T05:14:31.165Z,13.63
2019-04-28T05:17:00.980Z,13.77
2019-04-28T05:19:30.716Z,13.67
2019-04-28T05:22:00.718Z,13.84
2019-04-28T05:24:59.993Z,13.51
2019-04-28T05:27:32.439Z,13.81
2019-04-28T05:30:05.176Z,14.12
2019-04-28T05:32:42.519Z,14.04
2019-04-28T05:35:06.245Z,14.20
2019-04-28T05:37:36.184Z,13.96
2019-04-28T05:40:06.097Z,14.25
2019-04-28T05:42:35.965Z,14.15
2019-04-28T05:45:05.928Z,14.14
2019-04-28T05:47:35.743Z,14.01
2019-04-28T05:50:11.221Z,13.95
2019-04-28T05:53:00.577Z,14.12
2019-04-28T05:55:55.476Z,14.12
2019-04-28T05:58:36.561Z,13.87
2019-04-28T06:01:17.520Z,14.25
2019-04-28T06:03:49.687Z,14.22
2019-04-28T06:06:21.370Z,14.46
2019-04-28T06:09:15.043Z,14.45
2019-04-28T06:11:44.866Z,14.52
2019-04-28T06:14:14.552Z,14.99
2019-04-28T06:16:44.407Z,14.84
2019-04-28T06:19:14.426Z,15.29
2019-04-28T06:21:46.767Z,15.53
2019-04-28T06:24:16.567Z,15.46
2019-04-28T06:26:46.507Z,15.88
2019-04-28T06:29:17.757Z,15.82
2019-04-28T06:31:47.451Z,16.04
2019-04-28T06:34:17.287Z,16.43
2019-04-28T06:36:47.371Z,16.26
2019-04-28T06:39:17.197Z,16.04
2019-04-28T06:41:48.254Z,16.00
2019-04-28T06:44:18.056Z,16.24
2019-04-28T06:46:47.767Z,16.59
2019-04-28T06:49:17.656Z,16.67
2019-04-28T06:51:47.545Z,16.79
2019-04-28T06:54:17.549Z,16.58
2019-04-28T06:56:47.370Z,16.93
2019-04-28T06:59:17.582Z,17.14
2019-04-28T07:01:47.393Z,17.45
2019-04-28T07:04:17.324Z,17.27
2019-04-28T07:06:47.395Z,17.23
2019-04-28T07:09:17.482Z,17.42
2019-04-28T07:11:47.564Z,17.38
2019-04-28T07:14:17.525Z,17.42
2019-04-28T07:16:47.177Z,17.80
2019-04-28T07:19:17.089Z,17.84
2019-04-28T07:22:01.648Z,18.13
2019-04-28T07:24:31.592Z,17.79
2019-04-28T07:27:01.768Z,18.17
2019-04-28T07:29:32.780Z,18.33
2019-04-28T07:32:02.553Z,18.52
2019-04-28T07:34:32.365Z,18.54
2019-04-28T07:37:02.328Z,18.71
2019-04-28T07:39:32.115Z,18.81
2019-04-28T07:42:03.382Z,19.06
2019-04-28T07:44:33.151Z,19.13
2019-04-28T07:47:03.076Z,19.12
2019-04-28T07:49:34.246Z,19.23
2019-04-28T07:52:26.071Z,19.50
2019-04-28T07:54:57.101Z,19.81
2019-04-28T07:57:27.245Z,19.81
2019-04-28T07:59:57.045Z,19.78
2019-04-28T08:02:27.075Z,19.70
2019-04-28T08:04:57.099Z,19.78
2019-04-28T08:07:27.198Z,19.85
2019-04-28T08:09:58.468Z,20.11
2019-04-28T08:12:28.270Z,20.34
2019-04-28T08:14:58.037Z,20.08
2019-04-28T08:17:27.823Z,20.41
2019-04-28T08:19:57.731Z,20.50
2019-04-28T08:22:29.175Z,20.52
2019-04-28T08:24:58.994Z,20.73
2019-04-28T08:27:28.920Z,20.78
2019-04-28T08:29:59.060Z,20.73
2019-04-28T08:32:47.922Z,21.13
2019-04-28T08:35:18.857Z,21.13
2019-04-28T08:37:48.625Z,21.27
2019-04-28T08:40:18.541Z,21.24
2019-04-28T08:42:48.210Z,21.40
2019-04-28T08:45:18.295Z,21.54
2019-04-28T08:47:48.113Z,21.66
2019-04-28T08:50:19.502Z,21.69
2019-04-28T08:52:49.252Z,21.86
2019-04-28T08:55:18.960Z,21.84
2019-04-28T08:57:49.923Z,21.71
2019-04-28T09:00:20.620Z,21.93
2019-04-28T09:02:50.261Z,22.29
2019-04-28T09:05:21.419Z,22.07
2019-04-28T09:07:51.242Z,22.30
2019-04-28T09:10:20.940Z,22.40
2019-04-28T09:12:50.805Z,22.61
2019-04-28T09:15:20.785Z,22.79
2019-04-28T09:17:50.601Z,22.77
2019-04-28T09:20:20.416Z,22.82
2019-04-28T09:22:50.381Z,23.01
2019-04-28T09:25:20.226Z,22.96
2019-04-28T09:27:50.167Z,23.11
2019-04-28T09:30:21.484Z,23.05
2019-04-28T09:32:51.543Z,23.25
2019-04-28T09:35:21.550Z,23.62
2019-04-28T09:37:51.465Z,23.95
2019-04-28T09:40:21.427Z,23.90
2019-04-28T09:43:00.167Z,23.13
2019-04-28T09:45:51.584Z,23.55
2019-04-28T09:48:21.250Z,23.55
2019-04-28T09:50:51.084Z,23.86
2019-04-28T09:53:22.339Z,24.01
2019-04-28T09:55:52.088Z,23.45
2019-04-28T09:58:21.831Z,23.47
2019-04-28T10:00:53.085Z,23.30
2019-04-28T10:03:25.231Z,23.08
2019-04-28T10:05:54.123Z,23.17
2019-04-28T10:08:23.993Z,23.26
2019-04-28T10:10:53.851Z,23.42
2019-04-28T10:13:23.878Z,23.24
2019-04-28T10:15:54.934Z,23.45
2019-04-28T10:18:24.731Z,23.83
2019-04-28T10:20:54.460Z,24.13
2019-04-28T10:23:24.270Z,24.30
2019-04-28T10:25:54.290Z,24.53
2019-04-28T10:28:24.249Z,24.71
2019-04-28T10:30:54.006Z,24.38
2019-04-28T10:33:23.825Z,24.22
2019-04-28T10:35:53.748Z,24.14
2019-04-28T10:38:23.447Z,24.21
2019-04-28T10:41:06.313Z,24.51
2019-04-28T10:43:36.213Z,24.62
2019-04-28T10:46:06.126Z,23.98
2019-04-28T10:48:37.205Z,23.34
2019-04-28T10:51:06.948Z,23.31
2019-04-28T10:53:36.673Z,22.98
2019-04-28T10:56:07.029Z,22.74
2019-04-28T10:58:37.977Z,23.42
2019-04-28T11:01:07.940Z,23.87
2019-04-28T11:03:37.673Z,24.08
2019-04-28T11:06:07.671Z,23.19
2019-04-28T11:08:59.150Z,22.45
2019-04-28T11:11:29.077Z,22.77
2019-04-28T11:13:58.743Z,22.80
2019-04-28T11:16:32.521Z,22.65
2019-04-28T11:19:02.467Z,22.61
2019-04-28T11:21:32.380Z,22.88
2019-04-28T11:24:02.162Z,22.86
2019-04-28T11:26:31.933Z,22.70
2019-04-28T11:29:01.906Z,22.96
2019-04-28T11:31:31.761Z,22.99
2019-04-28T11:34:10.688Z,23.28
2019-04-28T11:36:40.718Z,23.04
2019-04-28T11:39:13.218Z,23.30
2019-04-28T11:41:42.993Z,23.67
2019-04-28T11:44:13.305Z,23.99
2019-04-28T11:46:43.177Z,23.99
2019-04-28T11:49:12.939Z,24.25
2019-04-28T11:51:43.991Z,23.60
2019-04-28T11:54:13.885Z,23.57
2019-04-28T11:56:44.977Z,23.68
2019-04-28T11:59:14.838Z,23.76
2019-04-28T12:01:44.693Z,23.45
2019-04-28T12:04:18.861Z,23.52
2019-04-28T12:06:48.602Z,23.53
2019-04-28T12:09:41.529Z,23.42
2019-04-28T12:12:22.153Z,23.43
2019-04-28T12:14:58.905Z,24.08
2019-04-28T12:17:43.594Z,24.24
2019-04-28T12:20:18.923Z,24.37
2019-04-28T12:22:48.727Z,24.35
2019-04-28T12:25:18.537Z,24.45
2019-04-28T12:27:48.293Z,24.88
2019-04-28T12:30:18.570Z,25.58
2019-04-28T12:32:48.302Z,26.46
2019-04-28T12:35:18.562Z,28.03
2019-04-28T12:37:48.324Z,29.76
2019-04-28T12:40:18.469Z,30.64
2019-04-28T12:42:48.189Z,29.15
2019-04-28T12:45:18.203Z,29.34
2019-04-28T12:47:47.913Z,28.76
2019-04-28T12:50:27.601Z,27.59
2019-04-28T12:52:57.245Z,27.35
2019-04-28T12:55:27.069Z,26.48
2019-04-28T12:57:57.100Z,25.63
2019-04-28T13:00:41.673Z,25.20
2019-04-28T13:03:21.184Z,25.19
2019-04-28T13:06:01.545Z,25.22
2019-04-28T13:08:22.866Z,25.46
2019-04-28T13:10:52.834Z,25.44
2019-04-28T13:13:22.619Z,25.33
2019-04-28T13:15:52.306Z,25.09
2019-04-28T13:18:22.290Z,25.08
2019-04-28T13:20:52.164Z,25.23
2019-04-28T13:23:21.996Z,26.01
2019-04-28T13:25:52.067Z,27.70
2019-04-28T13:28:21.845Z,28.79
2019-04-28T13:30:51.721Z,29.16
2019-04-28T13:33:21.705Z,29.52
2019-04-28T13:35:51.628Z,30.23
2019-04-28T13:38:21.452Z,29.20
2019-04-28T13:40:51.280Z,29.46
2019-04-28T13:43:21.026Z,29.29
2019-04-28T13:45:50.815Z,29.15
2019-04-28T13:48:20.738Z,29.58
2019-04-28T13:50:50.700Z,29.02
2019-04-28T13:53:20.671Z,28.16
2019-04-28T13:56:02.889Z,27.66
2019-04-28T13:58:52.179Z,27.29
2019-04-28T14:01:29.852Z,27.00
2019-04-28T14:04:24.616Z,26.54
2019-04-28T14:06:59.470Z,26.31
2019-04-28T14:09:29.401Z,26.67
2019-04-28T14:11:59.204Z,26.35
2019-04-28T14:14:28.952Z,28.31
2019-04-28T14:16:58.816Z,30.47
2019-04-28T14:19:28.751Z,30.57
2019-04-28T14:21:58.654Z,31.84
2019-04-28T14:24:29.737Z,31.27
2019-04-28T14:26:59.536Z,31.29
2019-04-28T14:29:29.420Z,31.60
2019-04-28T14:32:01.185Z,31.00
2019-04-28T14:34:31.020Z,31.69
2019-04-28T14:37:00.718Z,32.55
2019-04-28T14:39:31.912Z,31.87
2019-04-28T14:42:01.798Z,31.94
2019-04-28T14:44:31.595Z,32.65
2019-04-28T14:47:02.674Z,31.88
2019-04-28T14:49:32.463Z,31.58
2019-04-28T14:52:02.366Z,30.82
2019-04-28T14:54:33.815Z,31.63
2019-04-28T14:57:03.635Z,31.66
2019-04-28T14:59:33.476Z,31.87
2019-04-28T15:02:29.345Z,30.86
2019-04-28T15:05:30.283Z,30.90
2019-04-28T15:08:25.138Z,30.71
2019-04-28T15:11:19.707Z,29.80
2019-04-28T15:13:50.776Z,27.69
2019-04-28T15:16:20.588Z,27.08
2019-04-28T15:18:50.390Z,27.11
2019-04-28T15:21:21.417Z,26.68
2019-04-28T15:23:51.348Z,26.89
2019-04-28T15:26:21.285Z,26.53
2019-04-28T15:28:52.545Z,25.95
2019-04-28T15:31:22.319Z,24.83
2019-04-28T15:33:51.937Z,24.89
2019-04-28T15:36:23.049Z,25.52
2019-04-28T15:38:52.900Z,25.31
2019-04-28T15:41:22.815Z,24.97
2019-04-28T15:43:52.571Z,24.39
2019-04-28T15:46:22.440Z,24.24
2019-04-28T15:48:52.354Z,24.86
2019-04-28T15:51:23.549Z,24.87
2019-04-28T15:53:53.231Z,25.14
2019-04-28T15:56:57.473Z,24.15
2019-04-28T15:59:27.262Z,23.21
2019-04-28T16:01:57.080Z,22.62
2019-04-28T16:04:28.047Z,21.91
2019-04-28T16:06:57.825Z,20.83
2019-04-28T16:09:27.639Z,19.74
2019-04-28T16:11:57.646Z,19.67
2019-04-28T16:14:27.483Z,19.99
2019-04-28T16:16:58.558Z,19.65
2019-04-28T16:19:28.337Z,19.83
2019-04-28T16:21:58.050Z,19.17
2019-04-28T16:24:29.237Z,18.81
2019-04-28T16:26:59.094Z,19.00
2019-04-28T16:29:28.826Z,18.76
2019-04-28T16:31:59.783Z,18.77
2019-04-28T16:34:29.583Z,18.85
2019-04-28T16:36:59.501Z,18.63
2019-04-28T16:39:30.688Z,18.47
2019-04-28T16:42:07.040Z,18.30
2019-04-28T16:44:51.691Z,18.03
2019-04-28T16:47:21.494Z,17.84
2019-04-28T16:49:51.684Z,17.73
2019-04-28T16:52:21.432Z,17.50
2019-04-28T16:55:10.180Z,17.63
2019-04-28T16:57:47.295Z,17.71
2019-04-28T17:00:41.998Z,17.33
2019-04-28T17:03:11.801Z,17.02
2019-04-28T17:05:41.703Z,17.22
2019-04-28T17:08:11.695Z,17.18
2019-04-28T17:10:41.644Z,17.01
2019-04-28T17:13:11.449Z,16.68
2019-04-28T17:15:41.376Z,16.45
2019-04-28T17:18:11.290Z,16.19
2019-04-28T17:20:41.382Z,16.23
2019-04-28T17:23:11.149Z,16.35
2019-04-28T17:25:41.038Z,16.20
2019-04-28T17:28:11.008Z,16.23
2019-04-28T17:30:40.929Z,16.29
2019-04-28T17:33:10.801Z,16.51
2019-04-28T17:35:40.703Z,16.60
2019-04-28T17:38:11.866Z,16.70
2019-04-28T17:40:41.927Z,16.68
2019-04-28T17:43:11.767Z,16.69
2019-04-28T17:45:41.804Z,16.72
2019-04-28T17:48:20.016Z,16.71
2019-04-28T17:50:49.981Z,16.72
2019-04-28T17:53:19.746Z,16.77
2019-04-28T17:55:49.661Z,16.81
2019-04-28T17:58:20.819Z,16.80
2019-04-28T18:01:24.862Z,16.77
2019-04-28T18:04:25.798Z,16.71
2019-04-28T18:07:00.666Z,16.75
2019-04-28T18:09:30.757Z,16.74
2019-04-28T18:12:00.536Z,16.77
2019-04-28T18:14:32.064Z,16.78
2019-04-28T18:17:19.598Z,16.64
2019-04-28T18:19:49.235Z,16.62
2019-04-28T18:22:19.314Z,16.60
2019-04-28T18:24:49.185Z,16.64
2019-04-28T18:27:20.352Z,16.42
2019-04-28T18:29:50.131Z,16.47
2019-04-28T18:32:44.727Z,16.63
2019-04-28T18:35:26.892Z,16.56
2019-04-28T18:38:08.135Z,16.60
2019-04-28T18:40:51.273Z,16.67
2019-04-28T18:43:28.579Z,16.70
2019-04-28T18:45:58.432Z,16.69
2019-04-28T18:48:29.623Z,16.59
2019-04-28T18:50:59.409Z,16.73
2019-04-28T18:53:29.110Z,16.77
2019-04-28T18:55:58.938Z,16.70
2019-04-28T18:58:28.841Z,16.71
2019-04-28T19:01:09.577Z,16.69
2019-04-28T19:03:39.232Z,16.74
2019-04-28T19:06:09.157Z,16.74
2019-04-28T19:08:49.423Z,16.67
2019-04-28T19:11:25.647Z,16.67
2019-04-28T19:13:59.599Z,16.57
2019-04-28T19:16:51.287Z,16.58
2019-04-28T19:19:21.764Z,16.64
2019-04-28T19:21:57.913Z,16.60
2019-04-28T19:24:28.431Z,16.63
2019-04-28T19:26:58.392Z,16.71
2019-04-28T19:29:28.280Z,16.72
2019-04-28T19:31:58.010Z,16.81
2019-04-28T19:34:27.967Z,16.79
2019-04-28T19:36:57.699Z,16.85
2019-04-28T19:39:28.915Z,16.93
2019-04-28T19:41:58.663Z,16.94
2019-04-28T19:44:28.471Z,16.98
2019-04-28T19:46:59.450Z,16.92
2019-04-28T19:49:29.246Z,16.87
2019-04-28T19:51:59.159Z,16.92
2019-04-28T19:54:35.523Z,17.03
2019-04-28T19:57:24.316Z,17.04
2019-04-28T20:00:19.475Z,17.05
2019-04-28T20:02:49.294Z,16.98
2019-04-28T20:05:19.030Z,16.53
2019-04-28T20:07:50.084Z,16.58
2019-04-28T20:10:19.972Z,16.49
2019-04-28T20:12:49.877Z,16.49
2019-04-28T20:15:19.981Z,16.51
2019-04-28T20:17:49.821Z,16.46
2019-04-28T20:20:19.584Z,16.34
2019-04-28T20:22:49.371Z,16.35
2019-04-28T20:25:19.292Z,16.22
2019-04-28T20:27:49.351Z,16.20
2019-04-28T20:30:19.116Z,16.23
2019-04-28T20:32:49.137Z,16.12
2019-04-28T20:35:23.316Z,16.05
2019-04-28T20:38:01.220Z,15.88
2019-04-28T20:40:38.502Z,15.76
2019-04-28T20:43:14.198Z,15.69
2019-04-28T20:45:43.956Z,15.52
2019-04-28T20:48:13.928Z,15.52
2019-04-28T20:50:43.744Z,15.43
2019-04-28T20:53:13.617Z,15.38
2019-04-28T20:55:43.492Z,15.26
2019-04-28T20:58:13.392Z,15.16
2019-04-28T21:00:43.565Z,15.13
2019-04-28T21:03:13.418Z,15.09
2019-04-28T21:05:43.459Z,15.09
2019-04-28T21:08:13.312Z,15.05
2019-04-28T21:10:43.185Z,15.05
2019-04-28T21:13:12.899Z,15.09
2019-04-28T21:15:42.925Z,15.04
2019-04-28T21:18:12.812Z,14.98
2019-04-28T21:20:42.750Z,14.97
2019-04-28T21:23:12.660Z,15.06
2019-04-28T21:25:42.634Z,14.97
2019-04-28T21:28:12.485Z,14.93
2019-04-28T21:30:42.543Z,14.84
2019-04-28T21:33:12.358Z,14.90
2019-04-28T21:35:42.147Z,14.88
2019-04-28T21:38:12.078Z,14.94
2019-04-28T21:40:43.070Z,14.92
2019-04-28T21:43:34.765Z,14.74
2019-04-28T21:46:26.352Z,14.62
2019-04-28T21:49:05.280Z,14.58
2019-04-28T21:51:35.089Z,14.67
2019-04-28T21:54:04.908Z,14.65
2019-04-28T21:56:34.653Z,14.59
2019-04-28T21:59:04.531Z,14.75
2019-04-28T22:01:34.448Z,14.67
2019-04-28T22:04:04.589Z,14.67
2019-04-28T22:06:34.374Z,14.69
2019-04-28T22:09:05.851Z,14.67
2019-04-28T22:11:35.722Z,14.69
2019-04-28T22:14:06.060Z,14.74
2019-04-28T22:16:36.011Z,14.74
2019-04-28T22:19:06.060Z,14.78
2019-04-28T22:21:36.094Z,14.79
2019-04-28T22:24:13.657Z,14.76
2019-04-28T22:26:44.725Z,14.72
2019-04-28T22:29:14.819Z,14.76
2019-04-28T22:31:45.106Z,14.73
2019-04-28T22:34:15.787Z,14.70
2019-04-28T22:36:46.592Z,14.62
2019-04-28T22:39:16.931Z,14.47
2019-04-28T22:41:47.428Z,14.55
2019-04-28T22:44:17.431Z,14.53
2019-04-28T22:46:47.321Z,14.54
2019-04-28T22:49:17.546Z,14.43
2019-04-28T22:51:47.321Z,14.54
2019-04-28T22:54:24.052Z,14.53
2019-04-28T22:57:00.191Z,14.47
2019-04-28T22:59:33.682Z,14.35
2019-04-28T23:02:12.059Z,14.31
2019-04-28T23:04:56.281Z,14.30
2019-04-28T23:07:25.958Z,14.33
2019-04-28T23:09:55.773Z,14.24
2019-04-28T23:12:25.927Z,14.19
2019-04-28T23:14:55.699Z,14.15
2019-04-28T23:17:25.979Z,14.13
2019-04-28T23:19:55.735Z,14.15
2019-04-28T23:22:50.744Z,14.13
2019-04-28T23:25:20.557Z,14.11
2019-04-28T23:27:50.379Z,14.08
2019-04-28T23:30:45.282Z,14.06
2019-04-28T23:33:15.316Z,14.07
2019-04-28T23:35:45.268Z,14.05
2019-04-28T23:38:15.139Z,14.04
2019-04-28T23:41:10.443Z,14.04
2019-04-28T23:43:40.411Z,14.02
2019-04-28T23:46:10.284Z,14.05
2019-04-28T23:48:40.100Z,14.02
2019-04-28T23:51:27.996Z,14.00
2019-04-28T23:54:05.633Z,14.00
2019-04-28T23:56:35.404Z,13.95
2019-04-28T23:59:05.320Z,13.99
